createdAt,value
2023-01-07T00:02:04.276Z,100.00
2023-01-07T00:07:11.730Z,100.00
2023-01-07T00:12:17.981Z,100.00
2023-01-07T00:17:22.489Z,100.00
2023-01-07T00:22:27.041Z,100.00
2023-01-07T00:27:33.352Z,100.00
2023-01-07T00:32:52.370Z,100.00
2023-01-07T00:37:57.114Z,100.00
2023-01-07T00:43:05.207Z,100.00
2023-01-07T00:48:11.215Z,100.00
2023-01-07T00:53:15.923Z,100.00
2023-01-07T00:58:24.414Z,100.00
2023-01-07T01:03:31.780Z,100.00
2023-01-07T01:08:36.730Z,100.00
2023-01-07T01:13:43.520Z,100.00
2023-01-07T01:18:48.731Z,100.00
2023-01-07T01:23:53.289Z,100.00
2023-01-07T01:28:59.301Z,100.00
2023-01-07T01:34:04.243Z,100.00
2023-01-07T01:39:09.734Z,100.00
2023-01-07T01:44:47.439Z,100.00
2023-01-07T01:50:03.521Z,100.00
2023-01-07T01:55:13.352Z,100.00
2023-01-07T02:00:19.756Z,100.00
2023-01-07T02:05:35.091Z,100.00
2023-01-07T02:10:40.847Z,100.00
2023-01-07T02:15:57.565Z,100.00
2023-01-07T02:21:12.891Z,100.00
2023-01-07T02:26:57.615Z,100.00
2023-01-07T02:32:15.832Z,100.00
2023-01-07T02:37:26.981Z,100.00
2023-01-07T02:42:39.178Z,100.00
2023-01-07T02:47:51.125Z,100.00
2023-01-07T02:52:56.821Z,100.00
2023-01-07T02:58:30.173Z,100.00
2023-01-07T03:03:52.817Z,100.00
2023-01-07T03:09:06.077Z,100.00
2023-01-07T03:14:17.908Z,100.00
2023-01-07T03:19:31.680Z,100.00
2023-01-07T03:24:37.438Z,100.00
2023-01-07T03:29:41.930Z,100.00
2023-01-07T03:34:48.805Z,100.00
2023-01-07T03:39:54.428Z,100.00
2023-01-07T03:45:00.224Z,100.00
2023-01-07T03:50:10.320Z,100.00
2023-01-07T03:55:18.817Z,100.00
2023-01-07T04:00:25.549Z,100.00
2023-01-07T04:05:50.436Z,100.00
2023-01-07T04:10:56.083Z,100.00
2023-01-07T04:16:02.173Z,100.00
2023-01-07T04:21:08.494Z,100.00
2023-01-07T04:26:13.042Z,100.00
2023-01-07T04:31:18.656Z,100.00
2023-01-07T04:36:24.704Z,100.00
2023-01-07T04:41:29.390Z,100.00
2023-01-07T04:46:34.851Z,100.00
2023-01-07T04:51:41.087Z,100.00
2023-01-07T04:56:45.857Z,100.00
2023-01-07T05:01:50.953Z,100.00
2023-01-07T05:06:56.995Z,100.00
2023-01-07T05:12:03.446Z,100.00
2023-01-07T05:17:08.551Z,100.00
2023-01-07T05:22:16.705Z,100.00
2023-01-07T05:27:21.500Z,100.00
2023-01-07T05:32:26.996Z,100.00
2023-01-07T05:37:33.164Z,100.00
2023-01-07T05:42:37.741Z,100.00
2023-01-07T05:47:43.965Z,100.00
2023-01-07T05:52:49.603Z,100.00
2023-01-07T05:57:54.122Z,100.00
2023-01-07T06:02:58.604Z,100.00
2023-01-07T06:08:04.797Z,100.00
2023-01-07T06:13:09.304Z,100.00
2023-01-07T06:18:13.885Z,100.00
2023-01-07T06:23:20.108Z,100.00
2023-01-07T06:28:24.945Z,100.00
2023-01-07T06:33:33.385Z,100.00
2023-01-07T06:38:41.746Z,100.00
2023-01-07T06:43:46.223Z,100.00
2023-01-07T06:48:51.402Z,100.00
2023-01-07T06:54:00.805Z,100.00
2023-01-07T06:59:05.508Z,100.00
2023-01-07T07:04:12.409Z,100.00
2023-01-07T07:09:18.531Z,100.00
2023-01-07T07:14:23.002Z,100.00
2023-01-07T07:19:27.503Z,100.00
2023-01-07T07:24:34.983Z,100.00
2023-01-07T07:29:39.551Z,100.00
2023-01-07T07:34:43.897Z,100.00
2023-01-07T07:39:49.716Z,100.00
2023-01-07T07:44:54.215Z,100.00
2023-01-07T07:49:58.740Z,100.00
2023-01-07T07:55:20.478Z,100.00
2023-01-07T08:00:29.392Z,100.00
2023-01-07T08:05:34.695Z,100.00
2023-01-07T08:10:41.391Z,100.00
2023-01-07T08:15:45.885Z,100.00
2023-01-07T08:20:52.384Z,100.00
2023-01-07T08:26:01.124Z,100.00
2023-01-07T08:31:07.345Z,100.00
2023-01-07T08:36:22.573Z,100.00
2023-01-07T08:41:28.903Z,100.00
2023-01-07T08:46:33.504Z,100.00
2023-01-07T08:51:38.193Z,100.00
2023-01-07T08:56:44.222Z,100.00
2023-01-07T09:01:48.788Z,100.00
2023-01-07T09:06:53.545Z,100.00
2023-01-07T09:11:59.357Z,100.00
2023-01-07T09:17:03.334Z,100.00
2023-01-07T09:22:07.816Z,100.00
2023-01-07T09:27:13.572Z,100.00
2023-01-07T09:32:17.796Z,100.00
2023-01-07T09:37:22.884Z,100.00
2023-01-07T09:42:38.771Z,100.00
2023-01-07T09:47:46.226Z,100.00
2023-01-07T09:52:54.409Z,100.00
2023-01-07T09:58:00.701Z,100.00
2023-01-07T10:03:24.736Z,100.00
2023-01-07T10:08:39.861Z,100.00
2023-01-07T10:13:59.288Z,100.00
2023-01-07T10:19:09.529Z,100.00
2023-01-07T10:24:22.025Z,100.00
2023-01-07T10:29:33.767Z,100.00
2023-01-07T10:34:45.176Z,100.00
2023-01-07T10:39:57.878Z,100.00
2023-01-07T10:45:31.890Z,100.00
2023-01-07T10:50:53.455Z,100.00
2023-01-07T10:56:08.948Z,100.00
2023-01-07T11:01:22.951Z,100.00
2023-01-07T11:06:40.280Z,100.00
2023-01-07T11:11:47.266Z,100.00
2023-01-07T11:16:58.416Z,100.00
2023-01-07T11:22:03.255Z,100.00
2023-01-07T11:27:15.643Z,100.00
2023-01-07T11:32:26.236Z,100.00
2023-01-07T11:37:39.549Z,100.00
2023-01-07T11:42:49.985Z,100.00
2023-01-07T11:48:01.688Z,100.00
2023-01-07T11:53:23.519Z,100.00
2023-01-07T11:58:31.029Z,100.00
2023-01-07T12:03:38.289Z,100.00
2023-01-07T12:08:50.996Z,100.00
2023-01-07T12:13:55.900Z,100.00
2023-01-07T12:19:14.908Z,100.00
2023-01-07T12:25:00.284Z,100.00
2023-01-07T12:30:23.770Z,100.00
2023-01-07T12:35:32.578Z,100.00
2023-01-07T12:40:42.467Z,100.00
2023-01-07T12:45:52.677Z,87.72
2023-01-07T12:51:00.766Z,87.08
2023-01-07T12:56:12.384Z,95.09
2023-01-07T13:01:25.490Z,92.82
2023-01-07T13:06:42.936Z,96.35
2023-01-07T13:12:40.582Z,100.00
2023-01-07T13:17:35.931Z,94.93
2023-01-07T13:22:46.474Z,90.94
2023-01-07T13:28:20.658Z,90.33
2023-01-07T13:33:35.147Z,93.76
2023-01-07T13:39:14.018Z,94.30
2023-01-07T13:44:49.771Z,96.00
2023-01-07T13:50:00.522Z,100.00
2023-01-07T13:55:32.578Z,100.00
2023-01-07T14:01:05.208Z,99.96
2023-01-07T14:06:44.125Z,100.00
2023-01-07T14:12:15.802Z,100.00
2023-01-07T14:17:32.507Z,100.00
2023-01-07T14:22:44.265Z,100.00
2023-01-07T14:28:20.818Z,100.00
2023-01-07T14:33:28.249Z,100.00
2023-01-07T14:39:00.992Z,100.00
2023-01-07T14:44:37.110Z,100.00
2023-01-07T14:50:09.916Z,100.00
2023-01-07T14:55:40.117Z,100.00
2023-01-07T15:01:22.083Z,100.00
2023-01-07T15:06:30.268Z,100.00
2023-01-07T15:11:53.603Z,100.00
2023-01-07T15:16:58.702Z,100.00
2023-01-07T15:22:13.464Z,100.00
2023-01-07T15:27:29.790Z,100.00
2023-01-07T15:32:45.571Z,100.00
2023-01-07T15:37:52.883Z,100.00
2023-01-07T15:42:59.449Z,100.00
2023-01-07T15:48:09.189Z,100.00
2023-01-07T15:53:23.634Z,100.00
2023-01-07T15:58:36.693Z,100.00
2023-01-07T16:03:44.705Z,100.00
2023-01-07T16:08:51.926Z,100.00
2023-01-07T16:13:59.890Z,100.00
2023-01-07T16:19:08.644Z,100.00
2023-01-07T16:24:17.653Z,100.00
2023-01-07T16:29:27.500Z,100.00
2023-01-07T16:34:59.927Z,100.00
2023-01-07T16:40:18.102Z,100.00
2023-01-07T16:45:29.072Z,100.00
2023-01-07T16:50:40.495Z,100.00
2023-01-07T16:55:51.632Z,100.00
2023-01-07T17:01:01.829Z,100.00
2023-01-07T17:06:08.620Z,100.00
2023-01-07T17:11:22.845Z,100.00
2023-01-07T17:16:30.494Z,100.00
2023-01-07T17:21:43.025Z,100.00
2023-01-07T17:26:51.860Z,100.00
2023-01-07T17:31:56.937Z,100.00
2023-01-07T17:37:01.903Z,100.00
2023-01-07T17:42:39.894Z,100.00
2023-01-07T17:48:03.246Z,100.00
2023-01-07T17:53:14.909Z,100.00
2023-01-07T17:58:27.765Z,100.00
2023-01-07T18:03:40.053Z,100.00
2023-01-07T18:08:50.714Z,100.00
2023-01-07T18:14:11.109Z,100.00
2023-01-07T18:19:36.244Z,100.00
2023-01-07T18:25:19.001Z,100.00
2023-01-07T18:30:38.554Z,100.00
2023-01-07T18:35:43.631Z,100.00
2023-01-07T18:40:57.713Z,100.00
2023-01-07T18:46:19.970Z,100.00
2023-01-07T18:51:34.829Z,100.00
2023-01-07T18:57:05.236Z,100.00
2023-01-07T19:02:22.659Z,100.00
2023-01-07T19:08:03.048Z,100.00
2023-01-07T19:13:28.934Z,100.00
2023-01-07T19:19:07.015Z,100.00
2023-01-07T19:24:34.813Z,100.00
2023-01-07T19:29:49.967Z,100.00
2023-01-07T19:35:14.869Z,100.00
2023-01-07T19:40:19.028Z,100.00
2023-01-07T19:45:24.435Z,100.00
2023-01-07T19:50:30.328Z,100.00
2023-01-07T19:55:34.467Z,100.00
2023-01-07T20:00:39.051Z,100.00
2023-01-07T20:05:45.250Z,100.00
2023-01-07T20:10:57.588Z,100.00
2023-01-07T20:16:06.237Z,100.00
2023-01-07T20:21:12.889Z,100.00
2023-01-07T20:26:19.144Z,100.00
2023-01-07T20:31:27.349Z,100.00
2023-01-07T20:36:34.058Z,100.00
2023-01-07T20:41:39.209Z,100.00
2023-01-07T20:46:44.075Z,100.00
2023-01-07T20:51:50.097Z,100.00
2023-01-07T20:56:54.567Z,100.00
2023-01-07T21:01:59.182Z,100.00
2023-01-07T21:07:05.349Z,100.00
2023-01-07T21:12:10.030Z,100.00
2023-01-07T21:17:16.136Z,100.00
2023-01-07T21:22:21.997Z,100.00
2023-01-07T21:27:26.640Z,100.00
2023-01-07T21:32:31.123Z,100.00
2023-01-07T21:37:37.545Z,100.00
2023-01-07T21:42:41.931Z,100.00
2023-01-07T21:47:46.424Z,100.00
2023-01-07T21:52:53.431Z,100.00
2023-01-07T21:57:58.124Z,100.00
2023-01-07T22:03:02.654Z,100.00
2023-01-07T22:08:10.577Z,100.00
2023-01-07T22:13:15.065Z,100.00
2023-01-07T22:18:20.702Z,100.00
2023-01-07T22:23:26.999Z,100.00
2023-01-07T22:28:33.672Z,100.00
2023-01-07T22:33:38.154Z,100.00
2023-01-07T22:38:44.381Z,100.00
2023-01-07T22:44:55.037Z,100.00
2023-01-07T22:50:02.946Z,100.00
2023-01-07T22:55:09.862Z,100.00
2023-01-07T23:00:18.648Z,100.00
2023-01-07T23:05:25.752Z,100.00
2023-01-07T23:10:32.347Z,100.00
2023-01-07T23:15:38.307Z,100.00
2023-01-07T23:20:44.216Z,100.00
2023-01-07T23:25:52.109Z,100.00
2023-01-07T23:30:56.517Z,100.00
2023-01-07T23:36:05.050Z,100.00
2023-01-07T23:41:12.749Z,100.00
2023-01-07T23:46:18.228Z,100.00
2023-01-07T23:51:23.111Z,100.00
2023-01-07T23:56:30.162Z,100.00
